Time;durP1;ratioP1;P1;durP2;ratioP2;P2;SDS_P1;SDS_P2;PMS_P1;PMS_P2;Temp;Humidity;BMP_temperature;BMP_pressure;BME280_temperature;BME280_humidity;BME280_pressure;Samples;Min_cycle;Max_cycle;Signal;HPM_P1;HPM_P2
2021/08/09 00:01:57;;;;;;;8.18;1.88;;;13.90;81.80;;;;;;5063287;28;20048;-77
2021/08/09 00:04:25;;;;;;;12.65;1.80;;;13.90;81.80;;;;;;5067031;28;20317;-77
2021/08/09 00:06:52;;;;;;;9.82;2.10;;;13.90;81.90;;;;;;5055644;28;20049;-77
2021/08/09 00:09:20;;;;;;;10.05;1.77;;;13.80;81.90;;;;;;5049530;28;20056;-77
2021/08/09 00:11:48;;;;;;;8.48;1.95;;;13.80;81.90;;;;;;5061348;28;20415;-77
2021/08/09 00:14:15;;;;;;;10.45;1.85;;;13.80;81.90;;;;;;5059599;28;20398;-77
2021/08/09 00:16:43;;;;;;;7.35;2.00;;;13.80;82.00;;;;;;5068989;28;20045;-77
2021/08/09 00:19:11;;;;;;;9.38;1.95;;;13.80;82.10;;;;;;5056455;28;20407;-77
2021/08/09 00:21:38;;;;;;;11.82;2.05;;;13.80;82.20;;;;;;5063055;28;20049;-77
2021/08/09 00:24:06;;;;;;;7.13;1.45;;;13.80;82.20;;;;;;5064978;28;20052;-77
2021/08/09 00:26:34;;;;;;;7.35;1.55;;;13.80;82.20;;;;;;5058024;28;20041;-76
2021/08/09 00:29:05;;;;;;;10.02;1.75;;;13.80;82.30;;;;;;5069544;28;20036;-77
2021/08/09 00:31:33;;;;;;;13.13;2.13;;;13.70;82.40;;;;;;5059185;28;20048;-77
2021/08/09 00:34:01;;;;;;;9.20;1.92;;;13.80;82.40;;;;;;5062561;28;20493;-77
2021/08/09 00:36:29;;;;;;;14.38;1.90;;;13.70;82.50;;;;;;5067301;28;20049;-77
2021/08/09 00:39:02;;;;;;;11.55;2.10;;;13.70;82.50;;;;;;5056466;28;20071;-77
2021/08/09 00:41:32;;;;;;;8.73;1.80;;;13.70;82.50;;;;;;5064812;28;20056;-77
2021/08/09 00:44:00;;;;;;;8.25;2.00;;;13.70;82.70;;;;;;5046147;28;20051;-77
2021/08/09 00:46:29;;;;;;;13.13;2.00;;;13.60;82.70;;;;;;5057891;28;20502;-77
2021/08/09 00:48:59;;;;;;;12.63;2.05;;;13.70;82.80;;;;;;5068076;28;20047;-76
2021/08/09 00:51:27;;;;;;;7.45;1.77;;;13.60;82.90;;;;;;5057284;28;20045;-77
2021/08/09 00:53:59;;;;;;;10.90;2.20;;;13.70;82.90;;;;;;5060564;28;20052;-77
2021/08/09 00:56:28;;;;;;;7.82;1.77;;;13.70;82.90;;;;;;5067274;28;20055;-77
2021/08/09 00:58:58;;;;;;;10.32;1.90;;;13.70;82.90;;;;;;5038335;28;20045;-76
2021/08/09 01:01:27;;;;;;;9.90;2.40;;;13.70;83.00;;;;;;5065150;28;20048;-77
2021/08/09 01:03:58;;;;;;;10.98;2.35;;;13.70;83.00;;;;;;5045220;28;20048;-77
2021/08/09 01:06:26;;;;;;;5.70;1.70;;;13.70;83.00;;;;;;5056340;28;20479;-77
2021/08/09 01:09:07;;;;;;;11.65;2.53;;;13.70;83.00;;;;;;5067686;28;20055;-77
2021/08/09 01:11:43;;;;;;;6.72;2.00;;;13.70;83.10;;;;;;5057838;28;20048;-77
2021/08/09 01:14:21;;;;;;;7.72;2.22;;;13.70;83.20;;;;;;5058368;28;20536;-77
2021/08/09 01:17:00;;;;;;;11.88;2.53;;;13.70;83.20;;;;;;5067545;28;20040;-77
2021/08/09 01:19:58;;;;;;;17.23;2.75;;;13.70;83.30;;;;;;5057566;28;20036;-77
2021/08/09 01:22:32;;;;;;;8.90;2.28;;;13.70;83.30;;;;;;5056640;28;20060;-77
2021/08/09 01:25:21;;;;;;;7.35;1.92;;;13.70;83.40;;;;;;5067276;28;20052;-77
2021/08/09 01:27:53;;;;;;;9.07;2.33;;;13.70;83.50;;;;;;5060545;28;20049;-77
2021/08/09 01:30:21;;;;;;;12.07;2.70;;;13.60;83.40;;;;;;5058363;28;20052;-77
2021/08/09 01:32:51;;;;;;;11.90;2.20;;;13.60;83.50;;;;;;5067476;28;20482;-76
2021/08/09 01:35:23;;;;;;;18.10;2.83;;;13.70;83.60;;;;;;5055282;28;20053;-76
2021/08/09 01:37:56;;;;;;;7.72;2.60;;;13.60;83.70;;;;;;5060320;28;20064;-77
2021/08/09 01:40:28;;;;;;;14.63;2.65;;;13.60;83.70;;;;;;5064974;28;20048;-76
2021/08/09 01:42:57;;;;;;;10.13;2.20;;;13.70;83.70;;;;;;5054038;28;20041;-77
2021/08/09 01:45:32;;;;;;;10.05;2.63;;;13.60;83.70;;;;;;5063758;28;20053;-77
2021/08/09 01:48:01;;;;;;;8.95;2.58;;;13.70;83.70;;;;;;5062927;28;20486;-77
2021/08/09 01:50:34;;;;;;;10.52;2.67;;;13.70;83.70;;;;;;5034356;28;20057;-77
2021/08/09 01:53:05;;;;;;;14.40;2.70;;;13.70;83.70;;;;;;5066757;28;20052;-77
2021/08/09 01:55:35;;;;;;;13.77;2.95;;;13.60;83.70;;;;;;5057292;28;20044;-77
2021/08/09 01:58:04;;;;;;;9.27;2.70;;;13.60;83.80;;;;;;5058865;28;20045;-77
2021/08/09 02:00:32;;;;;;;13.93;2.63;;;13.50;83.80;;;;;;5065619;28;20036;-77
2021/08/09 02:03:02;;;;;;;8.65;2.40;;;13.60;84.00;;;;;;5053815;28;20048;-77
2021/08/09 02:05:31;;;;;;;6.10;2.45;;;13.50;84.10;;;;;;5061743;28;20045;-77
2021/08/09 02:08:05;;;;;;;7.75;2.33;;;13.50;84.10;;;;;;5061948;28;20048;-77
2021/08/09 02:10:33;;;;;;;11.98;2.67;;;13.40;84.20;;;;;;5056329;28;20071;-77
2021/08/09 02:13:37;;;;;;;9.80;2.85;;;13.40;84.30;;;;;;5066916;28;20048;-77
2021/08/09 02:16:11;;;;;;;13.57;3.50;;;13.30;84.50;;;;;;5061890;28;20041;-77
2021/08/09 02:19:01;;;;;;;10.50;3.10;;;13.30;84.50;;;;;;5053779;28;20462;-76
2021/08/09 02:21:39;;;;;;;13.32;3.40;;;13.30;84.80;;;;;;5063264;28;20112;-77
2021/08/09 02:24:32;;;;;;;11.05;3.50;;;13.20;85.00;;;;;;5061518;28;20063;-77
2021/08/09 02:27:12;;;;;;;11.77;3.43;;;13.10;85.20;;;;;;5053857;28;20048;-77
2021/08/09 02:29:47;;;;;;;18.65;3.85;;;13.00;85.30;;;;;;5061996;28;20107;-77
2021/08/09 02:32:18;;;;;;;9.90;3.20;;;13.00;85.50;;;;;;5063565;28;20504;-77
2021/08/09 02:34:49;;;;;;;10.93;3.47;;;12.90;85.60;;;;;;5053102;28;20047;-78
2021/08/09 02:37:18;;;;;;;13.50;3.65;;;12.80;85.80;;;;;;5065141;28;20041;-77
2021/08/09 02:39:47;;;;;;;15.88;3.70;;;12.80;86.00;;;;;;5059073;28;20044;-77
2021/08/09 02:42:18;;;;;;;12.68;3.90;;;12.70;86.20;;;;;;5040767;28;20052;-77
2021/08/09 02:44:47;;;;;;;10.68;3.75;;;12.60;86.40;;;;;;5050072;28;20040;-77
2021/08/09 02:47:16;;;;;;;10.05;4.07;;;12.50;86.60;;;;;;5056093;28;20044;-77
2021/08/09 02:49:48;;;;;;;14.00;4.53;;;12.40;86.80;;;;;;5062114;28;20045;-77
2021/08/09 02:52:21;;;;;;;11.40;4.32;;;12.30;87.00;;;;;;5047314;28;20516;-77
2021/08/09 02:54:52;;;;;;;16.73;4.97;;;12.30;87.20;;;;;;5053491;28;20038;-77
2021/08/09 02:57:23;;;;;;;13.68;5.03;;;12.20;87.40;;;;;;5064782;28;20490;-77
2021/08/09 02:59:51;;;;;;;13.73;4.95;;;12.20;87.60;;;;;;5059558;28;20041;-77
2021/08/09 03:02:19;;;;;;;21.25;4.85;;;12.10;87.70;;;;;;5056450;28;20526;-77
2021/08/09 03:04:48;;;;;;;16.60;5.13;;;12.00;87.90;;;;;;5066147;28;20048;-77
2021/08/09 03:07:17;;;;;;;15.77;5.15;;;12.00;88.10;;;;;;5054912;28;20040;-77
2021/08/09 03:09:45;;;;;;;18.33;5.13;;;12.00;88.20;;;;;;5047912;28;20056;-78
2021/08/09 03:12:17;;;;;;;20.15;5.03;;;12.00;88.30;;;;;;5066220;28;20048;-77
2021/08/09 03:14:50;;;;;;;12.27;5.50;;;11.90;88.40;;;;;;5040596;28;20056;-77
2021/08/09 03:17:18;;;;;;;15.63;5.30;;;11.90;88.60;;;;;;5068578;28;20093;-77
2021/08/09 03:19:46;;;;;;;12.25;5.20;;;11.90;88.70;;;;;;5061654;28;20047;-77
2021/08/09 03:22:14;;;;;;;20.67;5.85;;;11.90;88.90;;;;;;5060652;28;20074;-77
2021/08/09 03:24:41;;;;;;;15.02;5.25;;;11.80;88.90;;;;;;5069807;28;20382;-77
2021/08/09 03:27:09;;;;;;;18.95;6.00;;;11.80;89.00;;;;;;5040702;28;20490;-77
2021/08/09 03:29:37;;;;;;;19.02;5.75;;;11.80;89.10;;;;;;5065573;28;20044;-77
2021/08/09 03:32:06;;;;;;;24.40;6.03;;;11.80;89.30;;;;;;5064510;28;20057;-77
2021/08/09 03:34:33;;;;;;;16.15;6.07;;;11.70;89.50;;;;;;5057170;28;20045;-77
2021/08/09 03:37:02;;;;;;;20.65;6.05;;;11.70;89.60;;;;;;5051897;28;20060;-77
2021/08/09 03:39:31;;;;;;;15.30;5.82;;;11.70;89.70;;;;;;5058913;28;20489;-77
2021/08/09 03:41:59;;;;;;;16.67;6.07;;;11.70;89.80;;;;;;5063043;28;20041;-77
2021/08/09 03:44:26;;;;;;;22.17;6.38;;;11.60;89.80;;;;;;5066519;28;20044;-77
2021/08/09 03:46:54;;;;;;;18.13;5.80;;;11.70;89.90;;;;;;5056658;28;20466;-77
2021/08/09 03:49:22;;;;;;;14.77;5.72;;;11.60;89.90;;;;;;5065020;28;20052;-77
2021/08/09 03:51:49;;;;;;;20.60;5.65;;;11.60;90.00;;;;;;5061492;28;20048;-77
2021/08/09 03:54:17;;;;;;;24.52;5.63;;;11.60;90.10;;;;;;5041492;28;20049;-77
2021/08/09 03:56:46;;;;;;;21.10;5.78;;;11.70;90.10;;;;;;5067426;28;20486;-78
2021/08/09 03:59:13;;;;;;;22.70;5.90;;;11.60;90.20;;;;;;5056087;28;20393;-77
2021/08/09 04:01:42;;;;;;;14.10;5.55;;;11.60;90.30;;;;;;5063473;28;20399;-77
2021/08/09 04:04:10;;;;;;;17.40;5.40;;;11.60;90.30;;;;;;5064430;28;20048;-76
2021/08/09 04:06:38;;;;;;;21.52;5.18;;;11.60;90.30;;;;;;5055632;28;20053;-77
2021/08/09 04:09:07;;;;;;;15.35;4.75;;;11.60;90.40;;;;;;5068206;28;20041;-77
2021/08/09 04:11:37;;;;;;;18.40;5.68;;;11.60;90.50;;;;;;5058089;28;20442;-77
2021/08/09 04:14:05;;;;;;;18.45;4.70;;;11.60;90.40;;;;;;5060373;28;20045;-77
2021/08/09 04:16:34;;;;;;;16.15;4.32;;;11.70;90.40;;;;;;5065568;28;20052;-77
2021/08/09 04:19:02;;;;;;;18.25;4.80;;;11.80;90.30;;;;;;5052624;28;20048;-77
2021/08/09 04:21:30;;;;;;;13.48;4.63;;;11.80;90.30;;;;;;5065129;28;20045;-77
2021/08/09 04:23:59;;;;;;;15.88;4.40;;;11.80;90.20;;;;;;5062655;28;20059;-77
2021/08/09 04:26:26;;;;;;;11.48;4.45;;;11.80;90.20;;;;;;5057658;28;20049;-77
2021/08/09 04:28:54;;;;;;;13.63;4.50;;;11.80;90.20;;;;;;5052203;28;20041;-77
2021/08/09 04:31:22;;;;;;;15.75;4.07;;;11.80;90.20;;;;;;5057265;28;20505;-77
2021/08/09 04:33:50;;;;;;;12.90;4.63;;;11.80;90.20;;;;;;5061625;28;20073;-77
2021/08/09 04:36:18;;;;;;;12.57;4.15;;;11.80;90.10;;;;;;5065268;28;20048;-77
2021/08/09 04:38:47;;;;;;;13.43;3.80;;;11.80;90.10;;;;;;5055345;28;20052;-77
2021/08/09 04:41:16;;;;;;;18.23;4.82;;;11.90;90.10;;;;;;5067052;28;20560;-77
2021/08/09 04:43:45;;;;;;;14.20;4.32;;;11.90;90.00;;;;;;5060584;28;20059;-77
2021/08/09 04:46:16;;;;;;;14.43;4.70;;;11.80;89.90;;;;;;5058883;28;20063;-77
2021/08/09 04:48:44;;;;;;;16.88;3.97;;;11.90;89.90;;;;;;5068972;28;20052;-77
2021/08/09 04:51:13;;;;;;;10.82;3.72;;;11.90;89.90;;;;;;5055545;28;20048;-77
2021/08/09 04:53:44;;;;;;;14.68;4.55;;;11.90;89.90;;;;;;5062709;28;20056;-77
2021/08/09 04:56:14;;;;;;;13.65;3.88;;;12.00;89.80;;;;;;5064075;28;20048;-77
2021/08/09 04:58:43;;;;;;;15.35;4.18;;;11.90;89.80;;;;;;5054780;28;20049;-78
2021/08/09 05:01:11;;;;;;;13.02;4.18;;;12.00;89.80;;;;;;5050950;28;20414;-77
2021/08/09 05:03:40;;;;;;;14.80;3.90;;;12.00;89.80;;;;;;5059016;28;20052;-78
2021/08/09 05:06:18;;;;;;;17.20;4.10;;;12.00;89.80;;;;;;5043375;28;20048;-78
2021/08/09 05:08:46;;;;;;;15.30;3.67;;;12.00;89.70;;;;;;5067953;28;20049;-77
2021/08/09 05:11:14;;;;;;;16.50;4.03;;;12.10;89.70;;;;;;5055182;28;20417;-77
2021/08/09 05:13:53;;;;;;;13.15;3.88;;;12.10;89.60;;;;;;5046806;28;20513;-77
2021/08/09 05:16:20;;;;;;;15.95;4.18;;;12.20;89.50;;;;;;5064381;28;20044;-77
2021/08/09 05:18:48;;;;;;;12.40;3.60;;;12.20;89.50;;;;;;5070645;28;20048;-77
2021/08/09 05:21:17;;;;;;;9.13;3.88;;;12.20;89.50;;;;;;5039597;28;20497;-77
2021/08/09 05:23:47;;;;;;;14.25;4.22;;;12.30;89.40;;;;;;5045378;28;20053;-77
2021/08/09 05:26:15;;;;;;;12.10;4.00;;;12.30;89.40;;;;;;5047508;28;20052;-77
2021/08/09 05:28:42;;;;;;;16.17;4.15;;;12.30;89.30;;;;;;5054545;28;20048;-77
2021/08/09 05:31:12;;;;;;;17.27;4.00;;;12.30;89.30;;;;;;5067668;28;20041;-77
2021/08/09 05:33:40;;;;;;;12.90;3.40;;;12.40;89.30;;;;;;5058266;28;20044;-77
2021/08/09 05:36:08;;;;;;;10.65;3.60;;;12.40;89.20;;;;;;5060179;28;20060;-77
2021/08/09 05:38:52;;;;;;;;;;;12.50;89.10;;;;;;5069309;28;20049;-77
2021/08/09 05:41:20;;;;;;;10.98;3.47;;;12.60;89.10;;;;;;5056674;28;19957;-77
2021/08/09 05:43:51;;;;;;;16.13;3.80;;;12.70;89.00;;;;;;5066105;28;20040;-77
2021/08/09 05:46:20;;;;;;;14.35;4.40;;;12.70;88.90;;;;;;5048204;28;20471;-77
2021/08/09 05:48:49;;;;;;;16.20;4.13;;;12.80;88.90;;;;;;5042308;28;20053;-77
2021/08/09 05:51:18;;;;;;;16.55;4.40;;;12.80;88.80;;;;;;5045504;28;20041;-77
2021/08/09 05:53:46;;;;;;;13.98;4.30;;;12.90;88.80;;;;;;5042346;28;20041;-77
2021/08/09 05:56:14;;;;;;;11.48;4.38;;;12.90;88.70;;;;;;5043602;28;20042;-77
2021/08/09 05:58:49;;;;;;;13.23;3.75;;;13.00;88.60;;;;;;5040505;28;20048;-77
2021/08/09 06:01:18;;;;;;;11.55;3.97;;;13.20;88.50;;;;;;5045956;28;20467;-77
2021/08/09 06:03:46;;;;;;;8.95;3.50;;;13.30;88.30;;;;;;5042637;28;20045;-77
2021/08/09 06:06:18;;;;;;;11.52;4.30;;;13.30;88.20;;;;;;5044849;28;20052;-77
2021/08/09 06:08:50;;;;;;;9.57;3.60;;;13.40;88.00;;;;;;5066991;28;20063;-77
2021/08/09 06:11:21;;;;;;;10.15;4.40;;;13.50;87.90;;;;;;5061273;28;20041;-77
2021/08/09 06:13:50;;;;;;;9.63;4.05;;;13.60;87.90;;;;;;5059769;28;20390;-77
2021/08/09 06:16:18;;;;;;;12.90;4.57;;;13.70;87.80;;;;;;5056575;28;20421;-77
2021/08/09 06:18:46;;;;;;;16.70;4.28;;;13.80;87.60;;;;;;5067248;28;20060;-77
2021/08/09 06:21:14;;;;;;;14.48;4.45;;;13.80;87.50;;;;;;5056420;28;20041;-77
2021/08/09 06:23:43;;;;;;;9.15;4.43;;;13.90;87.30;;;;;;5045631;28;20053;-77
2021/08/09 06:26:15;;;;;;;8.57;4.25;;;13.90;87.30;;;;;;5063015;28;20056;-77
2021/08/09 06:28:44;;;;;;;8.23;4.03;;;14.00;87.30;;;;;;5053699;28;20482;-77
2021/08/09 06:31:11;;;;;;;9.55;4.32;;;14.00;87.40;;;;;;5066080;28;20375;-77
2021/08/09 06:33:39;;;;;;;11.07;4.32;;;14.00;87.40;;;;;;5057614;28;20044;-77
2021/08/09 06:36:08;;;;;;;13.85;4.55;;;14.00;87.50;;;;;;5057881;28;20056;-77
2021/08/09 06:38:36;;;;;;;9.85;4.13;;;14.00;87.50;;;;;;5065906;28;20044;-77
2021/08/09 06:41:05;;;;;;;9.48;4.15;;;14.00;87.50;;;;;;5053597;28;20048;-77
2021/08/09 06:43:38;;;;;;;13.20;5.13;;;14.00;87.60;;;;;;5070234;28;20052;-77
2021/08/09 06:46:15;;;;;;;10.95;4.63;;;14.00;87.60;;;;;;5061324;28;20068;-77
2021/08/09 06:48:43;;;;;;;12.35;4.03;;;14.00;87.60;;;;;;5070118;28;20052;-77
2021/08/09 06:51:11;;;;;;;10.05;4.72;;;14.00;87.50;;;;;;5040966;28;20059;-77
2021/08/09 06:53:40;;;;;;;14.00;4.30;;;14.10;87.60;;;;;;5065797;28;20517;-78
2021/08/09 06:56:15;;;;;;;9.38;4.82;;;14.10;87.50;;;;;;5065099;28;20041;-78
2021/08/09 06:58:43;;;;;;;8.38;4.43;;;14.10;87.40;;;;;;5057106;28;20052;-77
2021/08/09 07:01:11;;;;;;;13.20;4.80;;;14.20;87.50;;;;;;5070746;28;20396;-77
2021/08/09 07:03:43;;;;;;;8.38;4.45;;;14.30;87.40;;;;;;5061112;28;20067;-77
2021/08/09 07:06:22;;;;;;;10.85;4.57;;;14.30;87.30;;;;;;5061284;28;20049;-78
2021/08/09 07:08:54;;;;;;;14.90;5.07;;;14.40;87.10;;;;;;5070245;28;20044;-78
2021/08/09 07:11:22;;;;;;;13.73;4.20;;;14.50;87.00;;;;;;5042101;28;20490;-78
2021/08/09 07:13:52;;;;;;;9.85;4.07;;;14.60;86.80;;;;;;5063983;28;20124;-78
2021/08/09 07:16:24;;;;;;;9.25;4.28;;;14.60;86.70;;;;;;5049929;28;20053;-78
2021/08/09 07:18:52;;;;;;;11.52;4.03;;;14.60;86.60;;;;;;5056207;28;20041;-77
2021/08/09 07:21:22;;;;;;;10.05;4.10;;;14.60;86.60;;;;;;5067881;28;20051;-77
2021/08/09 07:23:50;;;;;;;7.50;3.92;;;14.50;86.70;;;;;;5046026;28;20044;-78
2021/08/09 07:26:17;;;;;;;11.23;4.03;;;14.50;86.80;;;;;;5060184;28;20119;-78
2021/08/09 07:28:45;;;;;;;7.88;3.50;;;14.50;86.80;;;;;;5069476;28;20048;-77
2021/08/09 07:31:13;;;;;;;8.18;3.67;;;14.50;86.90;;;;;;5055942;28;20481;-77
2021/08/09 07:33:41;;;;;;;5.90;3.30;;;14.50;86.90;;;;;;5064387;28;20275;-77
2021/08/09 07:36:08;;;;;;;7.22;3.38;;;14.50;87.00;;;;;;5064397;28;20036;-77
2021/08/09 07:38:36;;;;;;;8.10;2.90;;;14.50;87.00;;;;;;5056654;28;20495;-77
2021/08/09 07:41:04;;;;;;;8.02;2.90;;;14.50;87.00;;;;;;5052078;28;20411;-77
2021/08/09 07:43:32;;;;;;;7.85;3.65;;;14.50;86.80;;;;;;5042390;28;20049;-77
2021/08/09 07:46:00;;;;;;;9.38;3.42;;;14.60;86.80;;;;;;5061458;28;20045;-76
2021/08/09 07:48:30;;;;;;;6.95;3.05;;;14.60;86.80;;;;;;5039208;28;20498;-76
2021/08/09 07:50:59;;;;;;;5.70;2.83;;;14.60;86.80;;;;;;5052075;28;20437;-78
2021/08/09 07:53:26;;;;;;;6.25;2.42;;;14.60;86.70;;;;;;5057865;28;20045;-78
2021/08/09 07:55:54;;;;;;;8.65;2.72;;;14.60;86.60;;;;;;5060805;28;20041;-77
2021/08/09 07:58:23;;;;;;;3.38;1.73;;;14.60;86.70;;;;;;5052274;28;20510;-77
2021/08/09 08:00:54;;;;;;;4.82;2.10;;;14.60;86.80;;;;;;5052807;28;20041;-77
2021/08/09 08:03:24;;;;;;;4.53;2.20;;;14.50;86.80;;;;;;5043280;28;20056;-76
2021/08/09 08:05:52;;;;;;;3.20;2.03;;;14.50;87.10;;;;;;5045413;28;20053;-77
2021/08/09 08:08:20;;;;;;;4.82;2.03;;;14.50;87.40;;;;;;5046061;28;20048;-76
2021/08/09 08:11:02;;;;;;;5.30;2.00;;;14.50;87.50;;;;;;5071179;28;20460;-77
2021/08/09 08:13:32;;;;;;;5.65;2.05;;;14.50;87.80;;;;;;5065966;28;20055;-76
2021/08/09 08:16:00;;;;;;;2.55;1.70;;;14.50;88.00;;;;;;5069176;28;20041;-76
2021/08/09 08:18:28;;;;;;;3.13;2.10;;;14.40;88.00;;;;;;5069919;28;20482;-75
2021/08/09 08:20:56;;;;;;;3.45;1.63;;;14.40;88.20;;;;;;5064654;28;20079;-75
2021/08/09 08:23:24;;;;;;;2.60;1.77;;;14.40;88.20;;;;;;5064776;28;20057;-75
2021/08/09 08:25:52;;;;;;;4.28;1.80;;;14.40;88.20;;;;;;5063789;28;20053;-75
2021/08/09 08:28:22;;;;;;;2.17;1.83;;;14.40;88.20;;;;;;5060705;28;20551;-75
2021/08/09 08:30:52;;;;;;;1.95;1.60;;;14.50;88.20;;;;;;5042171;28;20487;-75
2021/08/09 08:33:21;;;;;;;2.15;1.80;;;14.60;88.10;;;;;;5062442;28;20040;-75
2021/08/09 08:35:49;;;;;;;2.80;1.70;;;14.70;88.00;;;;;;5062943;28;20049;-75
2021/08/09 08:38:18;;;;;;;3.38;1.60;;;14.80;87.90;;;;;;5045912;28;20044;-75
2021/08/09 08:40:47;;;;;;;3.97;1.48;;;14.90;87.60;;;;;;5063395;28;20418;-75
2021/08/09 08:43:20;;;;;;;2.75;1.55;;;15.00;87.30;;;;;;5065333;28;20493;-76
2021/08/09 08:46:05;;;;;;;4.45;1.70;;;15.10;87.00;;;;;;5077839;28;20074;-75
2021/08/09 08:48:37;;;;;;;4.60;1.83;;;15.30;86.90;;;;;;5085099;28;20047;-75
2021/08/09 08:51:23;;;;;;;3.38;1.80;;;15.50;86.80;;;;;;5069004;28;20048;-76
2021/08/09 08:53:53;;;;;;;;;;;15.60;86.50;;;;;;5073758;28;20052;-76
2021/08/09 08:56:21;;;;;;;4.57;1.90;;;15.70;86.30;;;;;;5069167;28;20103;-75
2021/08/09 08:58:49;;;;;;;4.90;1.52;;;15.80;85.80;;;;;;5052361;28;20532;-75
2021/08/09 09:01:37;;;;;;;4.13;1.75;;;15.90;85.60;;;;;;5068195;28;20064;-76
2021/08/09 09:04:27;;;;;;;3.42;1.88;;;15.90;85.40;;;;;;5069937;28;20059;-76
2021/08/09 09:07:08;;;;;;;3.72;1.77;;;15.90;85.30;;;;;;5045578;28;20363;-76
2021/08/09 09:09:40;;;;;;;4.28;1.90;;;15.90;85.20;;;;;;5064993;28;20053;-76
2021/08/09 09:12:15;;;;;;;4.30;1.67;;;15.90;85.10;;;;;;5057588;28;20517;-76
2021/08/09 09:14:43;;;;;;;2.75;1.60;;;15.90;84.90;;;;;;5054448;28;20052;-76
2021/08/09 09:17:11;;;;;;;2.38;1.60;;;16.00;85.00;;;;;;5053367;28;20056;-76
2021/08/09 09:19:44;;;;;;;3.40;1.52;;;16.20;84.90;;;;;;5065050;28;20048;-76
2021/08/09 09:22:18;;;;;;;2.33;1.45;;;16.30;84.60;;;;;;5049833;28;20411;-76
2021/08/09 09:24:54;;;;;;;2.95;1.50;;;16.60;84.20;;;;;;5052772;28;20053;-76
2021/08/09 09:27:26;;;;;;;3.15;1.33;;;16.70;83.60;;;;;;5045968;28;20045;-77
2021/08/09 09:29:53;;;;;;;2.88;1.50;;;16.80;82.60;;;;;;5042704;28;20136;-76
2021/08/09 09:32:23;;;;;;;7.00;1.52;;;16.80;82.70;;;;;;5046457;28;20044;-77
2021/08/09 09:34:56;;;;;;;2.60;1.45;;;16.90;82.30;;;;;;5044560;28;20049;-76
2021/08/09 09:37:27;;;;;;;2.20;1.27;;;17.00;81.90;;;;;;5048039;28;20053;-77
2021/08/09 09:40:09;;;;;;;4.45;1.30;;;17.10;81.20;;;;;;5044539;28;20056;-76
2021/08/09 09:42:42;;;;;;;3.20;1.35;;;17.10;80.50;;;;;;5042111;28;20049;-76
2021/08/09 09:45:27;;;;;;;4.30;1.33;;;17.20;79.80;;;;;;5041577;28;20040;-73
2021/08/09 09:48:06;;;;;;;2.20;1.30;;;17.20;79.30;;;;;;5042360;28;20064;-74
2021/08/09 09:50:41;;;;;;;2.65;1.27;;;17.30;78.90;;;;;;5042863;28;20046;-73
2021/08/09 09:53:22;;;;;;;2.90;1.30;;;17.50;77.10;;;;;;5045164;28;20049;-73
2021/08/09 09:55:52;;;;;;;1.60;1.02;;;17.60;76.70;;;;;;5041449;28;20471;-73
2021/08/09 09:58:20;;;;;;;2.38;1.20;;;17.70;76.90;;;;;;5045638;28;20049;-74
2021/08/09 10:00:49;;;;;;;1.92;1.10;;;17.70;75.60;;;;;;5041062;28;20045;-73
2021/08/09 10:03:17;;;;;;;6.50;1.13;;;17.70;75.30;;;;;;5043409;28;20491;-73
2021/08/09 10:05:46;;;;;;;2.15;1.30;;;17.80;74.90;;;;;;5045430;28;20053;-73
2021/08/09 10:08:16;;;;;;;3.38;1.30;;;17.90;74.50;;;;;;5045618;28;20112;-73
2021/08/09 10:10:51;;;;;;;2.58;1.00;;;17.90;73.40;;;;;;5047455;28;20049;-73
2021/08/09 10:13:21;;;;;;;1.73;0.90;;;18.00;72.60;;;;;;5043863;28;20045;-73
2021/08/09 10:15:54;;;;;;;5.32;1.40;;;18.10;71.40;;;;;;5044040;28;20503;-80
2021/08/09 10:18:27;;;;;;;3.17;1.30;;;18.10;69.80;;;;;;5048942;28;20040;-73
2021/08/09 10:20:57;;;;;;;1.92;0.95;;;18.20;69.70;;;;;;5047503;28;20052;-73
2021/08/09 10:23:45;;;;;;;2.33;1.17;;;18.10;68.30;;;;;;5050395;28;20073;-73
2021/08/09 10:26:45;;;;;;;4.28;1.20;;;18.00;67.90;;;;;;5047907;28;20051;-72
2021/08/09 10:29:13;;;;;;;3.25;1.00;;;18.00;69.30;;;;;;5050917;28;20060;-73
2021/08/09 10:31:45;;;;;;;3.60;1.38;;;18.20;69.40;;;;;;5049545;28;20036;-74
2021/08/09 10:34:33;;;;;;;4.07;1.30;;;18.40;68.80;;;;;;5050911;28;20049;-73
2021/08/09 10:37:03;;;;;;;4.72;1.10;;;18.30;67.90;;;;;;5051610;28;20072;-73
2021/08/09 10:39:50;;;;;;;2.92;0.95;;;18.30;67.90;;;;;;5052428;28;20052;-73
2021/08/09 10:42:29;;;;;;;1.48;0.90;;;18.20;68.40;;;;;;5052664;28;20048;-74
2021/08/09 10:44:57;;;;;;;5.15;1.15;;;18.30;68.10;;;;;;5053619;28;20049;-74
2021/08/09 10:47:51;;;;;;;3.30;1.58;;;18.40;68.10;;;;;;5052840;28;20402;-74
2021/08/09 10:50:24;;;;;;;3.90;1.50;;;18.50;68.60;;;;;;5053092;28;20040;-74
2021/08/09 10:52:54;;;;;;;2.85;1.05;;;18.70;67.80;;;;;;5052953;28;20049;-74
2021/08/09 10:55:30;;;;;;;4.47;1.58;;;18.70;67.10;;;;;;5052980;28;20514;-74
2021/08/09 10:58:03;;;;;;;6.57;1.38;;;18.60;65.70;;;;;;5053140;28;20052;-74
2021/08/09 11:00:42;;;;;;;5.15;1.50;;;18.50;66.30;;;;;;5052937;28;20060;-74
2021/08/09 11:03:11;;;;;;;2.83;1.63;;;18.50;66.80;;;;;;5052929;28;20041;-76
2021/08/09 11:05:39;;;;;;;4.57;1.40;;;18.50;66.30;;;;;;5051736;28;20434;-74
2021/08/09 11:08:16;;;;;;;5.95;1.48;;;18.90;66.00;;;;;;5052858;28;20045;-74
2021/08/09 11:10:51;;;;;;;2.85;1.20;;;19.40;65.30;;;;;;5051339;28;20072;-75
2021/08/09 11:13:19;;;;;;;1.17;0.80;;;19.90;63.90;;;;;;5052750;28;20049;-74
2021/08/09 11:15:53;;;;;;;1.33;0.80;;;20.40;63.00;;;;;;5044515;28;20041;-74
2021/08/09 11:18:21;;;;;;;1.60;0.50;;;20.90;61.30;;;;;;5032785;28;20395;-74
2021/08/09 11:21:07;;;;;;;1.42;0.80;;;21.00;56.20;;;;;;5032704;28;20174;-74
2021/08/09 11:23:39;;;;;;;4.65;1.10;;;20.80;54.50;;;;;;5032681;28;20041;-74
2021/08/09 11:26:28;;;;;;;1.58;0.90;;;20.80;57.10;;;;;;5031455;28;20056;-73
2021/08/09 11:29:05;;;;;;;5.47;1.20;;;20.70;57.90;;;;;;5032773;28;20049;-74
2021/08/09 11:31:46;;;;;;;5.93;1.23;;;20.50;58.30;;;;;;5032556;28;20475;-74
2021/08/09 11:34:14;;;;;;;2.70;1.00;;;20.30;59.20;;;;;;5032710;28;20519;-75
2021/08/09 11:36:42;;;;;;;3.10;1.10;;;20.00;59.80;;;;;;5032369;28;20049;-75
2021/08/09 11:39:13;;;;;;;24.02;1.70;;;19.70;60.30;;;;;;5033061;28;20057;-74
2021/08/09 11:41:53;;;;;;;5.55;0.93;;;19.60;61.10;;;;;;5032378;28;20041;-73
2021/08/09 11:44:23;;;;;;;1.65;1.05;;;19.80;60.90;;;;;;5032249;28;20117;-73
2021/08/09 11:46:51;;;;;;;5.45;1.25;;;20.50;60.30;;;;;;5032434;28;20271;-76
2021/08/09 11:49:20;;;;;;;2.35;0.88;;;21.10;59.40;;;;;;5032313;28;20058;-74
2021/08/09 11:51:48;;;;;;;2.50;1.13;;;21.50;54.20;;;;;;5032938;28;20062;-75
2021/08/09 11:54:16;;;;;;;3.15;1.20;;;21.70;52.50;;;;;;5032188;28;20384;-75
2021/08/09 11:56:53;;;;;;;2.00;1.20;;;21.80;52.00;;;;;;5032190;28;20045;-75
2021/08/09 11:59:21;;;;;;;3.35;1.25;;;21.80;52.80;;;;;;5032169;28;20049;-76
2021/08/09 12:01:49;;;;;;;3.15;1.25;;;21.60;52.50;;;;;;5014541;28;20538;-75
2021/08/09 12:04:19;;;;;;;26.90;2.33;;;21.30;52.90;;;;;;5031888;28;20069;-75
2021/08/09 12:06:52;;;;;;;11.27;1.42;;;21.00;53.20;;;;;;5030946;28;20083;-75
2021/08/09 12:09:24;;;;;;;3.58;1.10;;;20.70;53.90;;;;;;5030352;28;20064;-74
2021/08/09 12:12:02;;;;;;;7.97;1.50;;;20.40;55.00;;;;;;5030629;28;20049;-75
2021/08/09 12:14:35;;;;;;;1.50;0.95;;;20.40;55.20;;;;;;5030876;28;20054;-75
2021/08/09 12:17:15;;;;;;;3.95;1.20;;;20.50;55.30;;;;;;5031947;28;20049;-75
2021/08/09 12:19:45;;;;;;;2.25;1.05;;;20.50;55.20;;;;;;5030760;28;20049;-75
2021/08/09 12:22:14;;;;;;;4.03;1.55;;;20.60;55.10;;;;;;5031866;28;20050;-75
2021/08/09 12:24:44;;;;;;;5.85;1.13;;;20.70;54.00;;;;;;5014527;28;20053;-75
2021/08/09 12:27:19;;;;;;;1.27;0.93;;;20.80;53.80;;;;;;5031936;28;20045;-75
2021/08/09 12:30:08;;;;;;;6.50;1.20;;;20.70;50.20;;;;;;5031861;28;20060;-74
2021/08/09 12:32:38;;;;;;;2.10;1.20;;;20.30;52.00;;;;;;5030644;28;20387;-74
2021/08/09 12:35:07;;;;;;;1.98;1.10;;;20.10;53.30;;;;;;5031152;28;20064;-74
2021/08/09 12:37:37;;;;;;;1.35;1.05;;;20.00;53.40;;;;;;5031705;28;20041;-74
2021/08/09 12:40:22;;;;;;;3.70;1.42;;;19.80;53.70;;;;;;5031968;28;20045;-74
2021/08/09 12:43:05;;;;;;;1.65;1.20;;;19.60;54.80;;;;;;5030307;28;20056;-75
2021/08/09 12:45:34;;;;;;;2.25;1.15;;;19.50;55.50;;;;;;5031669;28;20334;-73
2021/08/09 12:48:04;;;;;;;2.95;1.40;;;19.40;56.10;;;;;;5031512;28;20399;-74
2021/08/09 12:50:33;;;;;;;3.25;1.13;;;19.40;56.70;;;;;;5030176;28;20519;-74
2021/08/09 12:53:01;;;;;;;3.13;1.15;;;19.50;56.80;;;;;;5031374;28;20049;-74
2021/08/09 12:55:30;;;;;;;1.98;1.13;;;19.80;56.40;;;;;;5030235;28;20148;-74
2021/08/09 12:58:00;;;;;;;2.67;1.27;;;20.30;56.30;;;;;;5035216;28;20514;-74
2021/08/09 13:00:32;;;;;;;4.03;1.20;;;21.10;55.20;;;;;;5035103;28;20405;-76
2021/08/09 13:03:00;;;;;;;7.47;1.15;;;22.00;53.70;;;;;;5035035;28;20042;-74
2021/08/09 13:05:30;;;;;;;2.97;1.20;;;22.50;52.10;;;;;;5034196;28;20056;-77